Menu Close Menu
Station Historical Data
Daily Summary for October 9, 2017 Units:  Metric    English   Both
« Previous Day
Next Day »
Daily Weekly Monthly Yearly Custom
  High: Low: Average:
Temperature: 23.7 °C 22.3 °C 22.9 °C
Dew Point: 22.6 °C 21.3 °C 21.9 °C
Humidity: 95% 91% 94%
Wind Speed: 12.9km/h 3.2km/h 8.5km/h
Wind Gust: 12.9km/h - -
Wind- - South
Pressure: 1017.2 hPa 1010 hPa -
Precipitation: 0.76 mm    
Historical Graphs
 
 
Tabular Data for October 9, 2017
Time Temperature Dew Point Pressure Wind Wind Speed Wind Gust Humidity Rainfall Rate (Hourly) solar Conditions
00:00 22.8 °C 21.8 °C 1010 hPa South 12.9 km/h 12.9 km/h 94% 0 mm WeatherDisplay:10.37 W/m2 -RA
00:05 22.8 °C 21.8 °C 1010 hPa South 12.9 km/h 12.9 km/h 94% 0 mm WeatherDisplay:10.37 W/m2 -RA
00:10 22.8 °C 21.8 °C 1010 hPa South 12.9 km/h 12.9 km/h 94% 0 mm WeatherDisplay:10.37 W/m2 -RA
00:15 22.8 °C 21.8 °C 1010.4 hPa SSW 12.9 km/h 12.9 km/h 94% 0 mm WeatherDisplay:10.37 W/m2 OVC
00:20 22.8 °C 21.8 °C 1010.4 hPa SSW 12.9 km/h 12.9 km/h 94% 0 mm WeatherDisplay:10.37 W/m2 OVC
00:25 22.8 °C 21.8 °C 1010.4 hPa SSW 12.9 km/h 12.9 km/h 94% 0 mm WeatherDisplay:10.37 W/m2 OVC
00:30 22.8 °C 21.8 °C 1010.4 hPa SSW 12.9 km/h 12.9 km/h 94% 0 mm WeatherDisplay:10.37 W/m2 OVC
00:35 22.8 °C 21.8 °C 1010.4 hPa SSW 12.9 km/h 12.9 km/h 94% 0 mm WeatherDisplay:10.37 W/m2 OVC
00:40 22.8 °C 21.8 °C 1010.4 hPa SSW 12.9 km/h 12.9 km/h 94% 0 mm WeatherDisplay:10.37 W/m2 OVC
00:45 22.8 °C 21.8 °C 1010.4 hPa SSW 12.9 km/h 12.9 km/h 94% 0 mm WeatherDisplay:10.37 W/m2 OVC
00:50 22.8 °C 21.8 °C 1010.7 hPa SSW 12.9 km/h 12.9 km/h 94% 0 mm WeatherDisplay:10.37 W/m2 OVC
00:55 22.8 °C 21.8 °C 1010.7 hPa SSW 12.9 km/h 12.9 km/h 94% 0 mm WeatherDisplay:10.37 W/m2 OVC
01:00 22.8 °C 21.8 °C 1010.7 hPa SSW 12.9 km/h 12.9 km/h 94% 0 mm WeatherDisplay:10.37 W/m2 OVC
01:05 22.8 °C 21.8 °C 1010.7 hPa SSW 12.9 km/h 12.9 km/h 94% 0 mm WeatherDisplay:10.37 W/m2 OVC
01:10 22.8 °C 21.8 °C 1010.7 hPa SSW 12.9 km/h 12.9 km/h 94% 0 mm WeatherDisplay:10.37 W/m2 OVC
01:20 22.8 °C 21.8 °C 1010.7 hPa SSW 9.7 km/h 9.7 km/h 94% 0 mm WeatherDisplay:10.37 W/m2 OVC
01:25 22.8 °C 21.8 °C 1010.7 hPa SSW 9.7 km/h 9.7 km/h 94% 0 mm WeatherDisplay:10.37 W/m2 OVC
01:30 22.8 °C 21.8 °C 1010.7 hPa SSW 9.7 km/h 9.7 km/h 94% 0 mm WeatherDisplay:10.37 W/m2 OVC
01:35 22.8 °C 21.8 °C 1010.7 hPa SSW 9.7 km/h 9.7 km/h 94% 0 mm WeatherDisplay:10.37 W/m2 OVC
01:40 22.8 °C 21.8 °C 1010.7 hPa SSW 9.7 km/h 9.7 km/h 94% 0 mm WeatherDisplay:10.37 W/m2 OVC
01:45 22.8 °C 21.8 °C 1010.7 hPa SSW 9.7 km/h 9.7 km/h 94% 0 mm WeatherDisplay:10.37 W/m2 OVC
01:50 22.8 °C 21.8 °C 1010.7 hPa SSW 9.7 km/h 9.7 km/h 94% 0 mm WeatherDisplay:10.37 W/m2 OVC
01:55 22.8 °C 21.8 °C 1011.1 hPa SSW 9.7 km/h 9.7 km/h 94% 0 mm WeatherDisplay:10.37 W/m2 OVC
02:00 22.8 °C 21.8 °C 1010.7 hPa SSW 9.7 km/h 9.7 km/h 94% 0 mm WeatherDisplay:10.37 W/m2 OVC
02:05 22.8 °C 21.8 °C 1010.7 hPa SSW 9.7 km/h 9.7 km/h 94% 0 mm WeatherDisplay:10.37 W/m2 OVC
02:10 22.8 °C 21.8 °C 1010.7 hPa SSW 9.7 km/h 9.7 km/h 94% 0 mm WeatherDisplay:10.37 W/m2 OVC
02:15 22.8 °C 21.8 °C 1010.7 hPa SSW 8 km/h 9.7 km/h 94% 0 mm WeatherDisplay:10.37 W/m2 OVC
02:20 22.8 °C 21.8 °C 1011.1 hPa SSW 8 km/h 8 km/h 94% 0 mm WeatherDisplay:10.37 W/m2 OVC
02:25 22.8 °C 21.8 °C 1011.1 hPa SSW 8 km/h 8 km/h 94% 0 mm WeatherDisplay:10.37 W/m2 OVC
02:30 22.8 °C 21.8 °C 1011.1 hPa SSW 8 km/h 8 km/h 94% 0 mm WeatherDisplay:10.37 W/m2 OVC
02:35 22.7 °C 21.7 °C 1011.1 hPa SSW 8 km/h 8 km/h 94% 0 mm WeatherDisplay:10.37 W/m2 OVC
02:40 22.7 °C 21.7 °C 1011.1 hPa SSW 8 km/h 8 km/h 94% 0 mm WeatherDisplay:10.37 W/m2 OVC
02:45 22.7 °C 21.7 °C 1011.1 hPa SSW 8 km/h 8 km/h 94% 0 mm WeatherDisplay:10.37 W/m2 OVC
02:50 22.7 °C 21.7 °C 1011.4 hPa SSW 8 km/h 8 km/h 94% 0 mm WeatherDisplay:10.37 W/m2 OVC
02:55 22.7 °C 21.7 °C 1011.4 hPa SSW 8 km/h 8 km/h 94% 0 mm WeatherDisplay:10.37 W/m2 OVC
03:00 22.7 °C 21.7 °C 1011.4 hPa SSW 8 km/h 8 km/h 94% 0 mm WeatherDisplay:10.37 W/m2 OVC
03:05 22.7 °C 21.7 °C 1011.4 hPa SSW 8 km/h 8 km/h 94% 0 mm WeatherDisplay:10.37 W/m2 OVC
03:10 22.7 °C 21.7 °C 1011.4 hPa SSW 8 km/h 8 km/h 94% 0 mm WeatherDisplay:10.37 W/m2 OVC
03:15 22.7 °C 21.7 °C 1011.4 hPa SSW 9.7 km/h 9.7 km/h 94% 0 mm WeatherDisplay:10.37 W/m2 OVC
03:20 22.7 °C 21.7 °C 1011.4 hPa South 9.7 km/h 9.7 km/h 94% 0 mm WeatherDisplay:10.37 W/m2 OVC
03:25 22.7 °C 21.7 °C 1011.4 hPa South 9.7 km/h 9.7 km/h 94% 0 mm WeatherDisplay:10.37 W/m2 OVC
03:30 22.6 °C 21.6 °C 1011.4 hPa South 9.7 km/h 9.7 km/h 94% 0 mm WeatherDisplay:10.37 W/m2 OVC
03:35 22.6 °C 21.6 °C 1011.4 hPa South 9.7 km/h 9.7 km/h 94% 0 mm WeatherDisplay:10.37 W/m2 OVC
03:40 22.6 °C 21.6 °C 1011.4 hPa South 9.7 km/h 9.7 km/h 94% 0 mm WeatherDisplay:10.37 W/m2 OVC
03:45 22.6 °C 21.6 °C 1011.4 hPa South 9.7 km/h 9.7 km/h 94% 0 mm WeatherDisplay:10.37 W/m2 OVC
03:50 22.6 °C 21.6 °C 1011.4 hPa South 9.7 km/h 9.7 km/h 94% 0 mm WeatherDisplay:10.37 W/m2 OVC
03:55 22.6 °C 21.6 °C 1011.4 hPa South 9.7 km/h 9.7 km/h 94% 0 mm WeatherDisplay:10.37 W/m2 OVC
04:00 22.6 °C 21.6 °C 1011.4 hPa South 9.7 km/h 9.7 km/h 94% 0 mm WeatherDisplay:10.37 W/m2 OVC
04:05 22.5 °C 21.5 °C 1011.4 hPa South 9.7 km/h 9.7 km/h 94% 0 mm WeatherDisplay:10.37 W/m2 OVC
04:10 22.6 °C 21.6 °C 1011.4 hPa South 9.7 km/h 9.7 km/h 94% 0 mm WeatherDisplay:10.37 W/m2 OVC
04:15 22.6 °C 21.6 °C 1011.4 hPa South 11.3 km/h 11.3 km/h 94% 0 mm WeatherDisplay:10.37 W/m2 OVC
04:20 22.6 °C 21.6 °C 1011.4 hPa South 11.3 km/h 11.3 km/h 94% 0 mm WeatherDisplay:10.37 W/m2 OVC
04:25 22.6 °C 21.6 °C 1011.4 hPa South 8 km/h 11.3 km/h 94% 0 mm WeatherDisplay:10.37 W/m2 OVC
04:30 22.6 °C 21.6 °C 1011.4 hPa South 8 km/h 8 km/h 94% 0 mm WeatherDisplay:10.37 W/m2 OVC
04:40 22.6 °C 21.6 °C 1011.7 hPa South 8 km/h 8 km/h 94% 0 mm WeatherDisplay:10.37 W/m2 OVC
04:45 22.6 °C 21.6 °C 1011.7 hPa South 8 km/h 8 km/h 94% 0 mm WeatherDisplay:10.37 W/m2 OVC
04:50 22.6 °C 21.6 °C 1011.7 hPa South 8 km/h 8 km/h 94% 0 mm WeatherDisplay:10.37 W/m2 OVC
04:55 22.6 °C 21.6 °C 1011.7 hPa South 8 km/h 8 km/h 94% 0 mm WeatherDisplay:10.37 W/m2 OVC
05:00 22.6 °C 21.6 °C 1011.7 hPa South 8 km/h 8 km/h 94% 0 mm WeatherDisplay:10.37 W/m2 OVC
05:05 22.6 °C 21.6 °C 1011.7 hPa South 8 km/h 8 km/h 94% 0 mm WeatherDisplay:10.37 W/m2 OVC
05:10 22.6 °C 21.6 °C 1011.7 hPa South 8 km/h 8 km/h 94% 0 mm WeatherDisplay:10.37 W/m2 OVC
05:15 22.6 °C 21.6 °C 1011.7 hPa South 8 km/h 8 km/h 94% 0 mm WeatherDisplay:10.37 W/m2 OVC
05:20 22.6 °C 21.6 °C 1011.7 hPa South 8 km/h 8 km/h 94% 0 mm WeatherDisplay:10.37 W/m2 OVC
05:25 22.6 °C 21.6 °C 1012.1 hPa South 8 km/h 8 km/h 94% 0 mm WeatherDisplay:10.37 W/m2 OVC
05:30 22.6 °C 21.6 °C 1012.1 hPa South 8 km/h 8 km/h 94% 0 mm WeatherDisplay:10.37 W/m2 OVC
05:35 22.6 °C 21.6 °C 1012.1 hPa South 8 km/h 8 km/h 94% 0 mm WeatherDisplay:10.37 W/m2 OVC
05:40 22.6 °C 21.6 °C 1012.4 hPa South 8 km/h 8 km/h 94% 0 mm WeatherDisplay:10.37 W/m2 OVC
05:45 22.6 °C 21.6 °C 1012.1 hPa SW 9.7 km/h 9.7 km/h 94% 0 mm WeatherDisplay:10.37 W/m2 OVC
05:50 22.6 °C 21.6 °C 1012.4 hPa WSW 9.7 km/h 9.7 km/h 94% 0 mm WeatherDisplay:10.37 W/m2 OVC
05:55 22.6 °C 21.6 °C 1012.4 hPa WSW 9.7 km/h 9.7 km/h 94% 0 mm WeatherDisplay:10.37 W/m2 OVC
06:00 22.6 °C 21.6 °C 1012.4 hPa WSW 9.7 km/h 9.7 km/h 94% 0 mm WeatherDisplay:10.37 W/m2 OVC
06:10 22.6 °C 21.6 °C 1012.8 hPa WSW 9.7 km/h 9.7 km/h 94% 0 mm WeatherDisplay:10.37 W/m2 OVC
06:15 22.6 °C 21.6 °C 1012.8 hPa WSW 9.7 km/h 9.7 km/h 94% 0 mm WeatherDisplay:10.37 W/m2 OVC
06:20 22.6 °C 21.6 °C 1012.8 hPa WSW 9.7 km/h 9.7 km/h 94% 0 mm WeatherDisplay:10.37 W/m2 OVC
06:30 22.6 °C 21.6 °C 1013.1 hPa WSW 9.7 km/h 9.7 km/h 94% 0 mm WeatherDisplay:10.37 W/m2 OVC
06:40 22.6 °C 21.6 °C 1013.1 hPa WSW 9.7 km/h 9.7 km/h 94% 0 mm WeatherDisplay:10.37 W/m2 OVC
06:45 22.6 °C 21.6 °C 1013.1 hPa WSW 9.7 km/h 9.7 km/h 94% 0 mm WeatherDisplay:10.37 W/m2 OVC
06:50 22.6 °C 21.6 °C 1013.1 hPa WSW 9.7 km/h 9.7 km/h 94% 0 mm WeatherDisplay:10.37 W/m2 OVC
06:55 22.5 °C 21.5 °C 1013.1 hPa WSW 9.7 km/h 9.7 km/h 94% 0 mm WeatherDisplay:10.37 W/m2 OVC
07:00 22.5 °C 21.5 °C 1013.1 hPa WSW 9.7 km/h 9.7 km/h 94% 0 mm WeatherDisplay:10.37 W/m2 OVC
07:05 22.4 °C 21.4 °C 1013.1 hPa WSW 9.7 km/h 9.7 km/h 94% 0 mm WeatherDisplay:10.37 W/m2 OVC
07:10 22.4 °C 21.4 °C 1013.4 hPa WSW 9.7 km/h 9.7 km/h 94% 0 mm WeatherDisplay:10.37 W/m2 OVC
07:15 22.4 °C 21.4 °C 1013.4 hPa WSW 9.7 km/h 9.7 km/h 94% 0 mm WeatherDisplay:10.37 W/m2 OVC
07:20 22.4 °C 21.4 °C 1013.4 hPa WSW 9.7 km/h 9.7 km/h 94% 0 mm WeatherDisplay:10.37 W/m2 OVC
07:25 22.4 °C 21.4 °C 1013.4 hPa WSW 9.7 km/h 9.7 km/h 94% 0 mm WeatherDisplay:10.37 W/m2 OVC
07:30 22.3 °C 21.3 °C 1013.4 hPa WSW 9.7 km/h 9.7 km/h 94% 0 mm WeatherDisplay:10.37 W/m2 OVC
07:40 22.3 °C 21.3 °C 1013.8 hPa WSW 9.7 km/h 9.7 km/h 94% 0 mm WeatherDisplay:10.37 W/m2 OVC
07:50 22.4 °C 21.4 °C 1013.8 hPa WSW 9.7 km/h 9.7 km/h 94% 0 mm WeatherDisplay:10.37 W/m2 OVC
07:55 22.4 °C 21.4 °C 1013.8 hPa WSW 9.7 km/h 9.7 km/h 94% 0 mm WeatherDisplay:10.37 W/m2 OVC
08:00 22.4 °C 21.4 °C 1013.8 hPa WSW 9.7 km/h 9.7 km/h 94% 0 mm WeatherDisplay:10.37 W/m2 OVC
08:05 22.4 °C 21.4 °C 1013.8 hPa WSW 9.7 km/h 9.7 km/h 94% 0 mm WeatherDisplay:10.37 W/m2 OVC
08:10 22.4 °C 21.4 °C 1013.8 hPa WSW 9.7 km/h 9.7 km/h 94% 0 mm WeatherDisplay:10.37 W/m2 OVC
08:15 22.4 °C 21.4 °C 1014.1 hPa SSW 3.2 km/h 9.7 km/h 94% 0 mm WeatherDisplay:10.37 W/m2 OVC
08:20 22.4 °C 21.4 °C 1014.1 hPa SSE 3.2 km/h 3.2 km/h 94% 0 mm WeatherDisplay:10.37 W/m2 OVC
08:25 22.5 °C 21.5 °C 1014.1 hPa SE 4.8 km/h 4.8 km/h 94% 0 mm WeatherDisplay:10.37 W/m2 OVC
08:30 22.5 °C 21.5 °C 1014.4 hPa SE 4.8 km/h 4.8 km/h 94% 0 mm WeatherDisplay:10.37 W/m2 OVC
08:35 22.5 °C 21.5 °C 1014.4 hPa SE 4.8 km/h 4.8 km/h 94% 0 mm WeatherDisplay:10.37 W/m2 OVC
08:40 22.5 °C 21.5 °C 1014.4 hPa SE 4.8 km/h 4.8 km/h 94% 0 mm WeatherDisplay:10.37 W/m2 OVC
08:45 22.6 °C 21.5 °C 1014.4 hPa SE 4.8 km/h 4.8 km/h 94% 0 mm WeatherDisplay:10.37 W/m2 OVC
08:50 22.6 °C 21.6 °C 1014.8 hPa SE 4.8 km/h 4.8 km/h 94% 0 mm WeatherDisplay:10.37 W/m2 OVC
08:55 22.6 °C 21.6 °C 1014.8 hPa SE 4.8 km/h 4.8 km/h 94% 0 mm WeatherDisplay:10.37 W/m2 OVC
09:00 22.6 °C 21.8 °C 1014.8 hPa SE 4.8 km/h 4.8 km/h 95% 0 mm WeatherDisplay:10.37 W/m2 OVC
09:05 22.6 °C 21.8 °C 1014.8 hPa SE 4.8 km/h 4.8 km/h 95% 0 mm WeatherDisplay:10.37 W/m2 OVC
09:10 22.7 °C 21.8 °C 1014.8 hPa SE 4.8 km/h 4.8 km/h 95% 0 mm WeatherDisplay:10.37 W/m2 OVC
09:15 22.7 °C 21.8 °C 1014.8 hPa SE 8 km/h 8 km/h 95% 0 mm WeatherDisplay:10.37 W/m2 OVC
09:20 22.7 °C 21.9 °C 1014.8 hPa SE 8 km/h 8 km/h 95% 0 mm WeatherDisplay:10.37 W/m2 OVC
09:25 22.8 °C 21.9 °C 1015.1 hPa SE 8 km/h 8 km/h 95% 0 mm WeatherDisplay:10.37 W/m2 OVC
09:30 22.8 °C 21.9 °C 1015.1 hPa SE 8 km/h 8 km/h 95% 0 mm WeatherDisplay:10.37 W/m2 OVC
09:35 22.8 °C 22 °C 1015.1 hPa SE 8 km/h 8 km/h 95% 0 mm WeatherDisplay:10.37 W/m2 OVC
09:40 22.9 °C 22.1 °C 1015.1 hPa SE 8 km/h 8 km/h 95% 0 mm WeatherDisplay:10.37 W/m2 OVC
09:45 22.9 °C 22.1 °C 1015.5 hPa SE 8 km/h 8 km/h 95% 0 mm WeatherDisplay:10.37 W/m2 OVC
09:50 22.9 °C 22.1 °C 1015.5 hPa SE 8 km/h 8 km/h 95% 0 mm WeatherDisplay:10.37 W/m2 OVC
09:55 23 °C 22.2 °C 1015.5 hPa SE 8 km/h 8 km/h 95% 0 mm WeatherDisplay:10.37 W/m2 OVC
10:00 23.1 °C 22.3 °C 1015.5 hPa SE 8 km/h 8 km/h 95% 0 mm WeatherDisplay:10.37 W/m2 OVC
10:05 23.3 °C 22.4 °C 1015.5 hPa SE 8 km/h 8 km/h 95% 0 mm WeatherDisplay:10.37 W/m2 OVC
10:10 23.3 °C 22.5 °C 1015.5 hPa SE 8 km/h 8 km/h 95% 0 mm WeatherDisplay:10.37 W/m2 OVC
10:15 23.4 °C 22.6 °C 1015.5 hPa SSE 3.2 km/h 8 km/h 95% 0 mm WeatherDisplay:10.37 W/m2 OVC
10:20 23.4 °C 22.6 °C 1015.5 hPa South 3.2 km/h 3.2 km/h 95% 0 mm WeatherDisplay:10.37 W/m2 OVC
10:30 23.4 °C 22.6 °C 1015.5 hPa South 3.2 km/h 3.2 km/h 95% 0 mm WeatherDisplay:10.37 W/m2 OVC
10:35 23.4 °C 22.4 °C 1015.5 hPa South 3.2 km/h 3.2 km/h 94% 0 mm WeatherDisplay:10.37 W/m2 OVC
10:40 23.4 °C 22.4 °C 1015.5 hPa South 3.2 km/h 3.2 km/h 94% 0 mm WeatherDisplay:10.37 W/m2 OVC
10:45 23.5 °C 22.5 °C 1015.5 hPa South 8 km/h 8 km/h 94% 0 mm WeatherDisplay:10.37 W/m2 OVC
10:50 23.5 °C 22.5 °C 1015.8 hPa South 8 km/h 8 km/h 94% 0 mm WeatherDisplay:10.37 W/m2 OVC
10:55 23.5 °C 22.5 °C 1015.8 hPa South 8 km/h 8 km/h 94% 0 mm WeatherDisplay:10.37 W/m2 OVC
11:00 23.5 °C 22.5 °C 1015.8 hPa South 8 km/h 8 km/h 94% 0 mm WeatherDisplay:10.37 W/m2 OVC
11:05 23.5 °C 22.5 °C 1015.8 hPa South 8 km/h 8 km/h 94% 0 mm WeatherDisplay:10.37 W/m2 OVC
11:25 23.6 °C 22.5 °C 1015.8 hPa SW 8 km/h 8 km/h 94% 0 mm WeatherDisplay:10.37 W/m2 OVC
11:35 23.6 °C 22.6 °C 1015.8 hPa South 8 km/h 8 km/h 94% 0 mm WeatherDisplay:10.37 W/m2 OVC
11:40 23.6 °C 22.6 °C 1015.8 hPa South 8 km/h 8 km/h 94% 0 mm WeatherDisplay:10.37 W/m2 OVC
11:45 23.6 °C 22.6 °C 1015.8 hPa SSE 4.8 km/h 8 km/h 94% 0 mm WeatherDisplay:10.37 W/m2 OVC
11:50 23.6 °C 22.6 °C 1015.8 hPa SSE 4.8 km/h 4.8 km/h 94% 0 mm WeatherDisplay:10.37 W/m2 OVC
11:55 23.6 °C 22.6 °C 1015.5 hPa SSE 8 km/h 8 km/h 94% 0 mm WeatherDisplay:10.37 W/m2 OVC
18:05 23.7 °C 22.2 °C 1014.4 hPa NW 8 km/h 8 km/h 91% 0 mm WeatherDisplay:10.37 W/m2 OVC
18:10 23.7 °C 22.1 °C 1014.4 hPa NW 8 km/h 8 km/h 91% 0 mm WeatherDisplay:10.37 W/m2 OVC
18:15 23.7 °C 22.1 °C 1014.4 hPa NE 8 km/h 8 km/h 91% 0 mm WeatherDisplay:10.37 W/m2 OVC
18:20 23.6 °C 22.1 °C 1014.4 hPa East 8 km/h 8 km/h 91% 0 mm WeatherDisplay:10.37 W/m2 OVC
18:25 23.6 °C 22.2 °C 1014.4 hPa East 8 km/h 8 km/h 92% 0 mm WeatherDisplay:10.37 W/m2 OVC
18:30 23.6 °C 22.2 °C 1014.4 hPa East 8 km/h 8 km/h 92% 0 mm WeatherDisplay:10.37 W/m2 OVC
18:45 23.3 °C 21.9 °C 1014.4 hPa East 8 km/h 8 km/h 92% 0 mm WeatherDisplay:10.37 W/m2 OVC
18:50 23.3 °C 21.9 °C 1014.4 hPa East 8 km/h 8 km/h 92% 0 mm WeatherDisplay:10.37 W/m2 OVC
18:55 23.3 °C 21.9 °C 1014.8 hPa East 8 km/h 8 km/h 92% 0 mm WeatherDisplay:10.37 W/m2 OVC
19:00 23.2 °C 22 °C 1014.8 hPa East 8 km/h 8 km/h 93% 0 mm WeatherDisplay:10.37 W/m2 OVC
19:05 23.2 °C 21.9 °C 1014.8 hPa East 8 km/h 8 km/h 93% 0 mm WeatherDisplay:10.37 W/m2 OVC
19:10 23.2 °C 21.9 °C 1014.8 hPa East 8 km/h 8 km/h 93% 0 mm WeatherDisplay:10.37 W/m2 OVC
19:15 23.2 °C 21.9 °C 1014.8 hPa East 8 km/h 8 km/h 93% 0 mm WeatherDisplay:10.37 W/m2 OVC
19:20 23.2 °C 21.9 °C 1015.1 hPa East 8 km/h 8 km/h 93% 0 mm WeatherDisplay:10.37 W/m2 OVC
19:25 23.1 °C 21.9 °C 1015.1 hPa East 8 km/h 8 km/h 93% 0 mm WeatherDisplay:10.37 W/m2 OVC
19:30 23.1 °C 21.9 °C 1015.1 hPa East 8 km/h 8 km/h 93% 0 mm WeatherDisplay:10.37 W/m2 OVC
19:35 23.1 °C 21.9 °C 1015.5 hPa East 8 km/h 8 km/h 93% 0 mm WeatherDisplay:10.37 W/m2 OVC
19:40 23.2 °C 21.9 °C 1015.5 hPa East 8 km/h 8 km/h 93% 0 mm WeatherDisplay:10.37 W/m2 OVC
19:45 23.2 °C 21.9 °C 1015.5 hPa East 8 km/h 8 km/h 93% 0 mm WeatherDisplay:10.37 W/m2 OVC
20:00 23.1 °C 21.9 °C 1015.8 hPa ESE 9.7 km/h 9.7 km/h 93% 0 mm WeatherDisplay:10.37 W/m2 -DZ
20:05 23.2 °C 21.9 °C 1015.8 hPa ESE 9.7 km/h 9.7 km/h 93% 0 mm WeatherDisplay:10.37 W/m2 -DZ
20:15 23.2 °C 21.9 °C 1015.8 hPa SE 8 km/h 9.7 km/h 93% 0 mm WeatherDisplay:10.37 W/m2 -DZ
20:20 23.2 °C 21.9 °C 1015.8 hPa SE 8 km/h 8 km/h 93% 0 mm WeatherDisplay:10.37 W/m2 -DZ
20:25 23.2 °C 21.9 °C 1016.1 hPa SE 8 km/h 8 km/h 93% 0 mm WeatherDisplay:10.37 W/m2 -DZ
20:30 23.2 °C 21.9 °C 1016.1 hPa SE 8 km/h 8 km/h 93% 0 mm WeatherDisplay:10.37 W/m2 -DZ
20:40 23.2 °C 21.9 °C 1016.1 hPa SE 8 km/h 8 km/h 93% 0 mm WeatherDisplay:10.37 W/m2 -DZ
20:50 23.1 °C 21.9 °C 1016.1 hPa East 4.8 km/h 4.8 km/h 93% 0 mm WeatherDisplay:10.37 W/m2 OVC
20:55 23.1 °C 21.9 °C 1016.1 hPa East 4.8 km/h 4.8 km/h 93% 0 mm WeatherDisplay:10.37 W/m2 OVC
21:00 23.1 °C 21.9 °C 1016.5 hPa East 4.8 km/h 4.8 km/h 93% 0 mm WeatherDisplay:10.37 W/m2 OVC
21:05 23.2 °C 21.9 °C 1016.5 hPa East 4.8 km/h 4.8 km/h 93% 0 mm WeatherDisplay:10.37 W/m2 OVC
21:15 23.2 °C 21.9 °C 1016.5 hPa East 4.8 km/h 4.8 km/h 93% 0 mm WeatherDisplay:10.37 W/m2 -DZ
21:25 23.2 °C 22.2 °C 1016.5 hPa East 4.8 km/h 4.8 km/h 94% 0 mm WeatherDisplay:10.37 W/m2 -DZ
21:30 23.2 °C 22.2 °C 1016.5 hPa East 4.8 km/h 4.8 km/h 94% 0 mm WeatherDisplay:10.37 W/m2 -DZ
21:35 23.2 °C 22.2 °C 1016.5 hPa East 4.8 km/h 4.8 km/h 94% 0 mm WeatherDisplay:10.37 W/m2 -DZ
21:40 23.2 °C 22.2 °C 1016.5 hPa East 4.8 km/h 4.8 km/h 94% 0 mm WeatherDisplay:10.37 W/m2 -DZ
22:00 23.2 °C 22.2 °C 1016.5 hPa NW 8 km/h 8 km/h 94% 0 mm WeatherDisplay:10.37 W/m2 -DZ
22:05 23.2 °C 22.2 °C 1016.8 hPa NW 8 km/h 8 km/h 94% 0 mm WeatherDisplay:10.37 W/m2 -DZ
22:10 23.2 °C 22.2 °C 1016.8 hPa NW 8 km/h 8 km/h 94% 0 mm WeatherDisplay:10.37 W/m2 -DZ
22:15 23.2 °C 22.2 °C 1016.8 hPa SSW 9.7 km/h 9.7 km/h 94% 0 mm WeatherDisplay:10.37 W/m2 OVC
22:20 23.2 °C 22.2 °C 1016.8 hPa South 9.7 km/h 9.7 km/h 94% 0 mm WeatherDisplay:10.37 W/m2 OVC
22:25 23.2 °C 22.2 °C 1016.8 hPa South 9.7 km/h 9.7 km/h 94% 0 mm WeatherDisplay:10.37 W/m2 OVC
22:30 23.2 °C 22.2 °C 1016.8 hPa South 9.7 km/h 9.7 km/h 94% 0 mm WeatherDisplay:10.37 W/m2 OVC
22:35 23.2 °C 22.2 °C 1016.8 hPa South 9.7 km/h 9.7 km/h 94% 0 mm WeatherDisplay:10.37 W/m2 OVC
22:40 23.2 °C 22.2 °C 1016.8 hPa South 9.7 km/h 9.7 km/h 94% 0 mm WeatherDisplay:10.37 W/m2 OVC
22:45 23.2 °C 22.2 °C 1016.8 hPa South 9.7 km/h 9.7 km/h 94% 0 mm WeatherDisplay:10.37 W/m2 OVC
22:50 23.2 °C 22.2 °C 1016.8 hPa South 9.7 km/h 9.7 km/h 94% 0 mm WeatherDisplay:10.37 W/m2 OVC
22:55 23.2 °C 22.2 °C 1016.8 hPa South 9.7 km/h 9.7 km/h 94% 0 mm WeatherDisplay:10.37 W/m2 OVC
23:00 23.2 °C 22.2 °C 1016.8 hPa South 9.7 km/h 9.7 km/h 94% 0 mm WeatherDisplay:10.37 W/m2 OVC
23:05 23.3 °C 22.3 °C 1017.2 hPa South 9.7 km/h 9.7 km/h 94% 0 mm WeatherDisplay:10.37 W/m2 OVC
23:10 23.3 °C 22.3 °C 1017.2 hPa South 9.7 km/h 9.7 km/h 94% 0 mm WeatherDisplay:10.37 W/m2 OVC
23:20 23.3 °C 22.3 °C 1017.2 hPa South 8 km/h 8 km/h 94% 0 mm WeatherDisplay:10.37 W/m2 OVC
23:30 23.3 °C 22.3 °C 1017.2 hPa South 8 km/h 8 km/h 94% 0 mm WeatherDisplay:10.37 W/m2 OVC
23:35 23.3 °C 22.3 °C 1017.2 hPa South 8 km/h 8 km/h 94% 0 mm WeatherDisplay:10.37 W/m2 OVC
23:40 23.3 °C 22.2 °C 1017.2 hPa South 8 km/h 8 km/h 94% 0 mm WeatherDisplay:10.37 W/m2 OVC
23:45 23.2 °C 22.2 °C 1017.2 hPa SSE 8 km/h 8 km/h 94% 0 mm WeatherDisplay:10.37 W/m2 OVC
23:50 23.2 °C 22.2 °C 1017.2 hPa SSE 8 km/h 8 km/h 94% 0 mm WeatherDisplay:10.37 W/m2 OVC
Piedmont Bend
Compliments of Weather Underground - 4 mb